sensor_id;sensor_type;location;lat;lon;timestamp;P1;durP1;ratioP1;P2;durP2;ratioP2
2784;SDS011;57944;48.722;9.316;2022-10-31T00:02:20;22.07;;;13.07;;
2784;SDS011;57944;48.722;9.316;2022-10-31T00:04:50;18.17;;;13.13;;
2784;SDS011;57944;48.722;9.316;2022-10-31T00:07:20;20.67;;;14.80;;
2784;SDS011;57944;48.722;9.316;2022-10-31T00:09:50;19.40;;;12.30;;
2784;SDS011;57944;48.722;9.316;2022-10-31T00:12:20;22.17;;;12.33;;
2784;SDS011;57944;48.722;9.316;2022-10-31T00:14:50;19.13;;;12.00;;
2784;SDS011;57944;48.722;9.316;2022-10-31T00:17:23;22.90;;;12.70;;
2784;SDS011;57944;48.722;9.316;2022-10-31T00:19:53;21.10;;;12.77;;
2784;SDS011;57944;48.722;9.316;2022-10-31T00:22:24;20.30;;;12.10;;
2784;SDS011;57944;48.722;9.316;2022-10-31T00:24:54;16.83;;;13.03;;
2784;SDS011;57944;48.722;9.316;2022-10-31T00:27:24;18.67;;;12.33;;
2784;SDS011;57944;48.722;9.316;2022-10-31T00:29:55;25.07;;;13.20;;
2784;SDS011;57944;48.722;9.316;2022-10-31T00:32:28;17.67;;;11.17;;
2784;SDS011;57944;48.722;9.316;2022-10-31T00:34:58;20.57;;;12.23;;
2784;SDS011;57944;48.722;9.316;2022-10-31T00:37:28;17.10;;;11.83;;
2784;SDS011;57944;48.722;9.316;2022-10-31T00:39:59;24.67;;;12.33;;
2784;SDS011;57944;48.722;9.316;2022-10-31T00:42:30;19.07;;;12.43;;
2784;SDS011;57944;48.722;9.316;2022-10-31T00:45:00;25.07;;;14.13;;
2784;SDS011;57944;48.722;9.316;2022-10-31T00:47:32;17.07;;;10.50;;
2784;SDS011;57944;48.722;9.316;2022-10-31T00:50:03;18.80;;;11.87;;
2784;SDS011;57944;48.722;9.316;2022-10-31T00:52:34;17.40;;;11.47;;
2784;SDS011;57944;48.722;9.316;2022-10-31T00:55:05;16.97;;;11.10;;
2784;SDS011;57944;48.722;9.316;2022-10-31T00:57:36;16.43;;;11.10;;
2784;SDS011;57944;48.722;9.316;2022-10-31T01:00:06;15.83;;;11.10;;
2784;SDS011;57944;48.722;9.316;2022-10-31T01:02:41;20.27;;;11.57;;
2784;SDS011;57944;48.722;9.316;2022-10-31T01:05:12;19.03;;;12.50;;
2784;SDS011;57944;48.722;9.316;2022-10-31T01:07:44;18.97;;;11.33;;
2784;SDS011;57944;48.722;9.316;2022-10-31T01:10:14;38.73;;;12.97;;
2784;SDS011;57944;48.722;9.316;2022-10-31T01:12:45;16.30;;;9.37;;
2784;SDS011;57944;48.722;9.316;2022-10-31T01:15:21;21.80;;;12.87;;
2784;SDS011;57944;48.722;9.316;2022-10-31T01:17:54;22.30;;;13.70;;
2784;SDS011;57944;48.722;9.316;2022-10-31T01:20:25;17.00;;;11.20;;
2784;SDS011;57944;48.722;9.316;2022-10-31T01:22:55;14.13;;;11.03;;
2784;SDS011;57944;48.722;9.316;2022-10-31T01:25:26;19.50;;;12.60;;
2784;SDS011;57944;48.722;9.316;2022-10-31T01:27:56;20.40;;;12.33;;
2784;SDS011;57944;48.722;9.316;2022-10-31T01:30:27;25.30;;;11.60;;
2784;SDS011;57944;48.722;9.316;2022-10-31T01:32:59;20.30;;;13.63;;
2784;SDS011;57944;48.722;9.316;2022-10-31T01:35:30;22.40;;;11.70;;
2784;SDS011;57944;48.722;9.316;2022-10-31T01:38:00;20.37;;;12.50;;
2784;SDS011;57944;48.722;9.316;2022-10-31T01:40:30;21.03;;;12.57;;
2784;SDS011;57944;48.722;9.316;2022-10-31T01:43:00;19.33;;;14.00;;
2784;SDS011;57944;48.722;9.316;2022-10-31T01:45:30;18.70;;;12.03;;
2784;SDS011;57944;48.722;9.316;2022-10-31T01:48:03;22.00;;;12.27;;
2784;SDS011;57944;48.722;9.316;2022-10-31T01:50:35;22.13;;;13.20;;
2784;SDS011;57944;48.722;9.316;2022-10-31T01:53:08;25.03;;;12.77;;
2784;SDS011;57944;48.722;9.316;2022-10-31T01:55:43;21.37;;;12.70;;
2784;SDS011;57944;48.722;9.316;2022-10-31T01:58:16;23.30;;;13.33;;
2784;SDS011;57944;48.722;9.316;2022-10-31T02:00:55;16.60;;;12.90;;
2784;SDS011;57944;48.722;9.316;2022-10-31T02:03:36;18.63;;;12.67;;
2784;SDS011;57944;48.722;9.316;2022-10-31T02:06:07;21.60;;;13.00;;
2784;SDS011;57944;48.722;9.316;2022-10-31T02:08:48;22.47;;;12.97;;
2784;SDS011;57944;48.722;9.316;2022-10-31T02:11:20;21.03;;;12.53;;
2784;SDS011;57944;48.722;9.316;2022-10-31T02:13:51;19.93;;;12.20;;
2784;SDS011;57944;48.722;9.316;2022-10-31T02:16:22;19.97;;;12.47;;
2784;SDS011;57944;48.722;9.316;2022-10-31T02:18:54;20.73;;;12.47;;
2784;SDS011;57944;48.722;9.316;2022-10-31T02:21:27;22.40;;;13.67;;
2784;SDS011;57944;48.722;9.316;2022-10-31T02:24:24;25.60;;;12.43;;
2784;SDS011;57944;48.722;9.316;2022-10-31T02:27:26;20.10;;;12.83;;
2784;SDS011;57944;48.722;9.316;2022-10-31T02:30:33;29.23;;;11.70;;
2784;SDS011;57944;48.722;9.316;2022-10-31T02:33:19;25.93;;;12.57;;
2784;SDS011;57944;48.722;9.316;2022-10-31T02:36:01;17.37;;;12.23;;
2784;SDS011;57944;48.722;9.316;2022-10-31T02:38:43;20.13;;;11.90;;
2784;SDS011;57944;48.722;9.316;2022-10-31T02:41:34;22.20;;;11.53;;
2784;SDS011;57944;48.722;9.316;2022-10-31T02:44:17;18.47;;;11.53;;
2784;SDS011;57944;48.722;9.316;2022-10-31T02:46:59;18.53;;;12.30;;
2784;SDS011;57944;48.722;9.316;2022-10-31T02:49:38;20.33;;;12.37;;
2784;SDS011;57944;48.722;9.316;2022-10-31T02:52:18;18.57;;;11.07;;
2784;SDS011;57944;48.722;9.316;2022-10-31T02:54:50;18.97;;;12.17;;
2784;SDS011;57944;48.722;9.316;2022-10-31T02:57:22;23.00;;;11.63;;
2784;SDS011;57944;48.722;9.316;2022-10-31T03:00:00;15.80;;;10.70;;
2784;SDS011;57944;48.722;9.316;2022-10-31T03:02:48;15.93;;;10.63;;
2784;SDS011;57944;48.722;9.316;2022-10-31T03:05:44;20.63;;;11.30;;
2784;SDS011;57944;48.722;9.316;2022-10-31T03:08:26;20.40;;;10.87;;
2784;SDS011;57944;48.722;9.316;2022-10-31T03:11:08;23.00;;;12.80;;
2784;SDS011;57944;48.722;9.316;2022-10-31T03:13:41;17.40;;;10.30;;
2784;SDS011;57944;48.722;9.316;2022-10-31T03:16:21;17.23;;;11.20;;
2784;SDS011;57944;48.722;9.316;2022-10-31T03:19:01;25.57;;;11.10;;
2784;SDS011;57944;48.722;9.316;2022-10-31T03:21:40;21.47;;;10.80;;
2784;SDS011;57944;48.722;9.316;2022-10-31T03:24:15;20.47;;;10.90;;
2784;SDS011;57944;48.722;9.316;2022-10-31T03:26:47;15.87;;;11.20;;
2784;SDS011;57944;48.722;9.316;2022-10-31T03:29:24;21.73;;;9.93;;
2784;SDS011;57944;48.722;9.316;2022-10-31T03:32:01;20.27;;;11.50;;
2784;SDS011;57944;48.722;9.316;2022-10-31T03:34:38;24.30;;;11.90;;
2784;SDS011;57944;48.722;9.316;2022-10-31T03:37:17;13.53;;;10.20;;
2784;SDS011;57944;48.722;9.316;2022-10-31T03:39:52;22.50;;;12.30;;
2784;SDS011;57944;48.722;9.316;2022-10-31T03:42:26;17.43;;;10.10;;
2784;SDS011;57944;48.722;9.316;2022-10-31T03:45:02;20.60;;;11.13;;
2784;SDS011;57944;48.722;9.316;2022-10-31T03:47:40;21.53;;;10.87;;
2784;SDS011;57944;48.722;9.316;2022-10-31T03:50:14;21.10;;;11.77;;
2784;SDS011;57944;48.722;9.316;2022-10-31T03:52:49;16.50;;;11.10;;
2784;SDS011;57944;48.722;9.316;2022-10-31T03:55:29;16.93;;;10.63;;
2784;SDS011;57944;48.722;9.316;2022-10-31T03:58:10;21.80;;;11.17;;
2784;SDS011;57944;48.722;9.316;2022-10-31T04:00:49;17.00;;;10.87;;
2784;SDS011;57944;48.722;9.316;2022-10-31T04:03:24;17.80;;;9.73;;
2784;SDS011;57944;48.722;9.316;2022-10-31T04:06:00;18.50;;;11.20;;
2784;SDS011;57944;48.722;9.316;2022-10-31T04:08:41;27.80;;;14.07;;
2784;SDS011;57944;48.722;9.316;2022-10-31T04:11:27;23.30;;;12.30;;
2784;SDS011;57944;48.722;9.316;2022-10-31T04:14:22;25.20;;;11.97;;
2784;SDS011;57944;48.722;9.316;2022-10-31T04:16:57;22.97;;;11.93;;
2784;SDS011;57944;48.722;9.316;2022-10-31T04:19:34;19.50;;;11.60;;
2784;SDS011;57944;48.722;9.316;2022-10-31T04:22:04;28.80;;;14.10;;
2784;SDS011;57944;48.722;9.316;2022-10-31T04:24:37;22.00;;;11.13;;
2784;SDS011;57944;48.722;9.316;2022-10-31T04:27:13;15.10;;;10.93;;
2784;SDS011;57944;48.722;9.316;2022-10-31T04:29:43;20.30;;;12.00;;
2784;SDS011;57944;48.722;9.316;2022-10-31T04:32:16;15.70;;;10.73;;
2784;SDS011;57944;48.722;9.316;2022-10-31T04:34:46;15.90;;;10.90;;
2784;SDS011;57944;48.722;9.316;2022-10-31T04:37:16;22.13;;;9.90;;
2784;SDS011;57944;48.722;9.316;2022-10-31T04:39:49;18.00;;;11.80;;
2784;SDS011;57944;48.722;9.316;2022-10-31T04:42:38;17.50;;;11.20;;
2784;SDS011;57944;48.722;9.316;2022-10-31T04:45:09;18.17;;;10.07;;
2784;SDS011;57944;48.722;9.316;2022-10-31T04:47:47;20.20;;;10.33;;
2784;SDS011;57944;48.722;9.316;2022-10-31T04:50:17;16.70;;;10.30;;
2784;SDS011;57944;48.722;9.316;2022-10-31T04:52:47;18.93;;;11.33;;
2784;SDS011;57944;48.722;9.316;2022-10-31T04:55:25;18.70;;;10.80;;
2784;SDS011;57944;48.722;9.316;2022-10-31T04:58:28;17.77;;;12.20;;
2784;SDS011;57944;48.722;9.316;2022-10-31T05:00:58;18.00;;;10.80;;
2784;SDS011;57944;48.722;9.316;2022-10-31T05:03:28;15.90;;;9.80;;
2784;SDS011;57944;48.722;9.316;2022-10-31T05:05:58;17.97;;;10.90;;
2784;SDS011;57944;48.722;9.316;2022-10-31T05:08:28;20.43;;;10.33;;
2784;SDS011;57944;48.722;9.316;2022-10-31T05:11:04;16.67;;;11.47;;
2784;SDS011;57944;48.722;9.316;2022-10-31T05:13:35;21.43;;;10.53;;
2784;SDS011;57944;48.722;9.316;2022-10-31T05:16:11;20.23;;;10.50;;
2784;SDS011;57944;48.722;9.316;2022-10-31T05:19:00;15.33;;;10.03;;
2784;SDS011;57944;48.722;9.316;2022-10-31T05:21:49;17.30;;;10.83;;
2784;SDS011;57944;48.722;9.316;2022-10-31T05:24:19;22.73;;;11.83;;
2784;SDS011;57944;48.722;9.316;2022-10-31T05:26:53;15.97;;;10.40;;
2784;SDS011;57944;48.722;9.316;2022-10-31T05:29:23;19.43;;;10.23;;
2784;SDS011;57944;48.722;9.316;2022-10-31T05:31:53;16.10;;;10.17;;
2784;SDS011;57944;48.722;9.316;2022-10-31T05:34:42;17.27;;;9.90;;
2784;SDS011;57944;48.722;9.316;2022-10-31T05:37:31;16.77;;;10.43;;
2784;SDS011;57944;48.722;9.316;2022-10-31T05:40:01;17.37;;;11.30;;
2784;SDS011;57944;48.722;9.316;2022-10-31T05:42:37;16.57;;;10.67;;
2784;SDS011;57944;48.722;9.316;2022-10-31T05:45:08;16.37;;;10.80;;
2784;SDS011;57944;48.722;9.316;2022-10-31T05:47:51;21.03;;;9.47;;
2784;SDS011;57944;48.722;9.316;2022-10-31T05:50:42;13.67;;;8.80;;
2784;SDS011;57944;48.722;9.316;2022-10-31T05:53:13;17.67;;;9.50;;
2784;SDS011;57944;48.722;9.316;2022-10-31T05:55:44;15.73;;;8.60;;
2784;SDS011;57944;48.722;9.316;2022-10-31T05:58:21;14.03;;;9.13;;
2784;SDS011;57944;48.722;9.316;2022-10-31T06:01:08;16.90;;;9.33;;
2784;SDS011;57944;48.722;9.316;2022-10-31T06:03:38;16.00;;;8.87;;
2784;SDS011;57944;48.722;9.316;2022-10-31T06:06:09;16.23;;;10.67;;
2784;SDS011;57944;48.722;9.316;2022-10-31T06:08:41;18.80;;;9.80;;
2784;SDS011;57944;48.722;9.316;2022-10-31T06:11:14;15.93;;;9.20;;
2784;SDS011;57944;48.722;9.316;2022-10-31T06:14:09;14.50;;;9.77;;
2784;SDS011;57944;48.722;9.316;2022-10-31T06:16:48;15.73;;;9.20;;
2784;SDS011;57944;48.722;9.316;2022-10-31T06:19:48;16.17;;;9.23;;
2784;SDS011;57944;48.722;9.316;2022-10-31T06:22:23;17.93;;;10.53;;
2784;SDS011;57944;48.722;9.316;2022-10-31T06:24:54;18.53;;;10.17;;
2784;SDS011;57944;48.722;9.316;2022-10-31T06:27:27;17.80;;;10.43;;
2784;SDS011;57944;48.722;9.316;2022-10-31T06:30:07;13.30;;;9.73;;
2784;SDS011;57944;48.722;9.316;2022-10-31T06:32:39;16.13;;;9.10;;
2784;SDS011;57944;48.722;9.316;2022-10-31T06:35:09;15.07;;;10.50;;
2784;SDS011;57944;48.722;9.316;2022-10-31T06:37:40;18.17;;;11.13;;
2784;SDS011;57944;48.722;9.316;2022-10-31T06:40:26;22.50;;;11.07;;
2784;SDS011;57944;48.722;9.316;2022-10-31T06:43:17;16.60;;;9.73;;
2784;SDS011;57944;48.722;9.316;2022-10-31T06:45:51;25.13;;;11.87;;
2784;SDS011;57944;48.722;9.316;2022-10-31T06:48:21;24.83;;;12.30;;
2784;SDS011;57944;48.722;9.316;2022-10-31T06:51:15;27.93;;;10.70;;
2784;SDS011;57944;48.722;9.316;2022-10-31T06:53:48;19.70;;;11.50;;
2784;SDS011;57944;48.722;9.316;2022-10-31T06:56:18;17.73;;;10.90;;
2784;SDS011;57944;48.722;9.316;2022-10-31T06:58:54;17.90;;;12.30;;
2784;SDS011;57944;48.722;9.316;2022-10-31T07:01:52;21.90;;;13.70;;
2784;SDS011;57944;48.722;9.316;2022-10-31T07:04:23;29.70;;;12.83;;
2784;SDS011;57944;48.722;9.316;2022-10-31T07:06:53;22.90;;;11.20;;
2784;SDS011;57944;48.722;9.316;2022-10-31T07:09:23;27.47;;;13.27;;
2784;SDS011;57944;48.722;9.316;2022-10-31T07:11:56;20.40;;;11.30;;
2784;SDS011;57944;48.722;9.316;2022-10-31T07:14:28;20.60;;;11.50;;
2784;SDS011;57944;48.722;9.316;2022-10-31T07:17:00;14.90;;;11.07;;
2784;SDS011;57944;48.722;9.316;2022-10-31T07:19:33;19.87;;;12.40;;
2784;SDS011;57944;48.722;9.316;2022-10-31T07:22:03;20.23;;;12.90;;
2784;SDS011;57944;48.722;9.316;2022-10-31T07:24:34;23.23;;;12.50;;
2784;SDS011;57944;48.722;9.316;2022-10-31T07:27:10;22.30;;;12.27;;
2784;SDS011;57944;48.722;9.316;2022-10-31T07:29:41;16.40;;;11.23;;
2784;SDS011;57944;48.722;9.316;2022-10-31T07:32:14;14.90;;;10.30;;
2784;SDS011;57944;48.722;9.316;2022-10-31T07:34:51;16.27;;;10.80;;
2784;SDS011;57944;48.722;9.316;2022-10-31T07:37:22;15.40;;;10.83;;
2784;SDS011;57944;48.722;9.316;2022-10-31T07:39:58;13.97;;;9.90;;
2784;SDS011;57944;48.722;9.316;2022-10-31T07:42:29;14.00;;;9.20;;
2784;SDS011;57944;48.722;9.316;2022-10-31T07:45:05;19.57;;;12.10;;
2784;SDS011;57944;48.722;9.316;2022-10-31T07:48:01;15.60;;;10.50;;
2784;SDS011;57944;48.722;9.316;2022-10-31T07:50:51;12.97;;;9.00;;
2784;SDS011;57944;48.722;9.316;2022-10-31T07:53:40;17.13;;;9.87;;
2784;SDS011;57944;48.722;9.316;2022-10-31T07:56:17;16.03;;;9.73;;
2784;SDS011;57944;48.722;9.316;2022-10-31T07:58:47;17.30;;;11.47;;
2784;SDS011;57944;48.722;9.316;2022-10-31T08:01:17;19.93;;;9.13;;
2784;SDS011;57944;48.722;9.316;2022-10-31T08:04:09;20.70;;;11.43;;
2784;SDS011;57944;48.722;9.316;2022-10-31T08:07:08;14.00;;;9.87;;
2784;SDS011;57944;48.722;9.316;2022-10-31T08:09:43;15.50;;;8.77;;
2784;SDS011;57944;48.722;9.316;2022-10-31T08:12:18;16.07;;;10.70;;
2784;SDS011;57944;48.722;9.316;2022-10-31T08:14:48;13.27;;;10.20;;
2784;SDS011;57944;48.722;9.316;2022-10-31T08:17:19;15.30;;;9.77;;
2784;SDS011;57944;48.722;9.316;2022-10-31T08:19:56;20.13;;;11.30;;
2784;SDS011;57944;48.722;9.316;2022-10-31T08:22:31;14.50;;;9.57;;
2784;SDS011;57944;48.722;9.316;2022-10-31T08:25:06;14.40;;;9.40;;
2784;SDS011;57944;48.722;9.316;2022-10-31T08:27:38;20.20;;;9.40;;
2784;SDS011;57944;48.722;9.316;2022-10-31T08:30:16;21.90;;;10.50;;
2784;SDS011;57944;48.722;9.316;2022-10-31T08:33:08;22.60;;;9.93;;
2784;SDS011;57944;48.722;9.316;2022-10-31T08:36:03;16.53;;;11.43;;
2784;SDS011;57944;48.722;9.316;2022-10-31T08:38:55;16.23;;;10.23;;
2784;SDS011;57944;48.722;9.316;2022-10-31T08:41:28;13.37;;;9.13;;
2784;SDS011;57944;48.722;9.316;2022-10-31T08:43:59;14.17;;;8.70;;
2784;SDS011;57944;48.722;9.316;2022-10-31T08:46:30;11.90;;;9.10;;
2784;SDS011;57944;48.722;9.316;2022-10-31T08:49:02;11.83;;;7.60;;
2784;SDS011;57944;48.722;9.316;2022-10-31T08:51:35;19.97;;;10.00;;
2784;SDS011;57944;48.722;9.316;2022-10-31T08:54:06;14.77;;;8.97;;
2784;SDS011;57944;48.722;9.316;2022-10-31T08:56:56;12.30;;;7.73;;
2784;SDS011;57944;48.722;9.316;2022-10-31T08:59:40;12.87;;;8.23;;
2784;SDS011;57944;48.722;9.316;2022-10-31T09:02:23;14.33;;;7.93;;
2784;SDS011;57944;48.722;9.316;2022-10-31T09:04:58;10.63;;;7.97;;
2784;SDS011;57944;48.722;9.316;2022-10-31T09:07:30;13.40;;;7.37;;
2784;SDS011;57944;48.722;9.316;2022-10-31T09:10:01;14.23;;;7.40;;
2784;SDS011;57944;48.722;9.316;2022-10-31T09:12:34;10.47;;;7.67;;
2784;SDS011;57944;48.722;9.316;2022-10-31T09:15:22;14.57;;;7.40;;
2784;SDS011;57944;48.722;9.316;2022-10-31T09:18:13;12.07;;;7.97;;
2784;SDS011;57944;48.722;9.316;2022-10-31T09:21:03;13.93;;;7.00;;
2784;SDS011;57944;48.722;9.316;2022-10-31T09:23:36;11.60;;;7.90;;
2784;SDS011;57944;48.722;9.316;2022-10-31T09:26:06;11.93;;;7.67;;
2784;SDS011;57944;48.722;9.316;2022-10-31T09:28:40;13.63;;;8.30;;
2784;SDS011;57944;48.722;9.316;2022-10-31T09:31:12;11.40;;;7.97;;
2784;SDS011;57944;48.722;9.316;2022-10-31T09:33:45;15.97;;;7.80;;
2784;SDS011;57944;48.722;9.316;2022-10-31T09:36:34;12.53;;;8.00;;
2784;SDS011;57944;48.722;9.316;2022-10-31T09:39:10;11.97;;;7.80;;
2784;SDS011;57944;48.722;9.316;2022-10-31T09:41:55;21.07;;;7.70;;
2784;SDS011;57944;48.722;9.316;2022-10-31T09:45:03;12.40;;;7.60;;
2784;SDS011;57944;48.722;9.316;2022-10-31T09:47:48;11.77;;;6.93;;
2784;SDS011;57944;48.722;9.316;2022-10-31T09:50:34;15.33;;;7.10;;
2784;SDS011;57944;48.722;9.316;2022-10-31T09:53:35;13.70;;;9.20;;
2784;SDS011;57944;48.722;9.316;2022-10-31T09:56:18;10.57;;;6.93;;
2784;SDS011;57944;48.722;9.316;2022-10-31T09:58:55;15.03;;;7.30;;
2784;SDS011;57944;48.722;9.316;2022-10-31T10:01:33;13.03;;;8.30;;
2784;SDS011;57944;48.722;9.316;2022-10-31T10:04:27;14.50;;;7.70;;
2784;SDS011;57944;48.722;9.316;2022-10-31T10:07:17;12.50;;;7.27;;
2784;SDS011;57944;48.722;9.316;2022-10-31T10:10:12;13.90;;;7.10;;
2784;SDS011;57944;48.722;9.316;2022-10-31T10:12:56;10.30;;;7.20;;
2784;SDS011;57944;48.722;9.316;2022-10-31T10:15:53;11.00;;;7.03;;
2784;SDS011;57944;48.722;9.316;2022-10-31T10:18:46;20.20;;;7.67;;
2784;SDS011;57944;48.722;9.316;2022-10-31T10:21:36;9.93;;;7.80;;
2784;SDS011;57944;48.722;9.316;2022-10-31T10:24:20;10.10;;;7.97;;
2784;SDS011;57944;48.722;9.316;2022-10-31T10:27:11;16.33;;;6.93;;
2784;SDS011;57944;48.722;9.316;2022-10-31T10:29:53;12.07;;;7.10;;
2784;SDS011;57944;48.722;9.316;2022-10-31T10:32:35;11.10;;;7.80;;
2784;SDS011;57944;48.722;9.316;2022-10-31T10:35:19;11.90;;;7.27;;
2784;SDS011;57944;48.722;9.316;2022-10-31T10:37:56;15.60;;;7.07;;
2784;SDS011;57944;48.722;9.316;2022-10-31T10:40:33;14.77;;;8.60;;
2784;SDS011;57944;48.722;9.316;2022-10-31T10:43:12;14.07;;;7.27;;
2784;SDS011;57944;48.722;9.316;2022-10-31T10:45:57;17.53;;;7.00;;
2784;SDS011;57944;48.722;9.316;2022-10-31T10:49:00;15.27;;;7.67;;
2784;SDS011;57944;48.722;9.316;2022-10-31T10:51:46;14.67;;;7.87;;
2784;SDS011;57944;48.722;9.316;2022-10-31T10:54:54;15.00;;;9.10;;
2784;SDS011;57944;48.722;9.316;2022-10-31T10:57:44;15.60;;;8.23;;
2784;SDS011;57944;48.722;9.316;2022-10-31T11:00:26;8.97;;;7.20;;
2784;SDS011;57944;48.722;9.316;2022-10-31T11:03:03;11.10;;;6.80;;
2784;SDS011;57944;48.722;9.316;2022-10-31T11:05:35;14.93;;;8.83;;
2784;SDS011;57944;48.722;9.316;2022-10-31T11:08:11;14.63;;;7.57;;
2784;SDS011;57944;48.722;9.316;2022-10-31T11:10:57;13.90;;;8.33;;
2784;SDS011;57944;48.722;9.316;2022-10-31T11:13:31;15.87;;;7.40;;
2784;SDS011;57944;48.722;9.316;2022-10-31T11:16:04;13.73;;;7.97;;
2784;SDS011;57944;48.722;9.316;2022-10-31T11:18:42;11.33;;;7.53;;
2784;SDS011;57944;48.722;9.316;2022-10-31T11:21:20;17.10;;;8.10;;
2784;SDS011;57944;48.722;9.316;2022-10-31T11:24:01;28.33;;;8.47;;
2784;SDS011;57944;48.722;9.316;2022-10-31T11:26:33;17.10;;;7.60;;
2784;SDS011;57944;48.722;9.316;2022-10-31T11:29:04;14.53;;;8.63;;
2784;SDS011;57944;48.722;9.316;2022-10-31T11:31:43;13.27;;;8.07;;
2784;SDS011;57944;48.722;9.316;2022-10-31T11:34:27;9.97;;;7.00;;
2784;SDS011;57944;48.722;9.316;2022-10-31T11:37:03;12.67;;;7.60;;
2784;SDS011;57944;48.722;9.316;2022-10-31T11:39:52;12.03;;;8.70;;
2784;SDS011;57944;48.722;9.316;2022-10-31T11:42:24;11.93;;;7.47;;
2784;SDS011;57944;48.722;9.316;2022-10-31T11:44:57;11.40;;;7.60;;
2784;SDS011;57944;48.722;9.316;2022-10-31T11:47:29;17.13;;;8.60;;
2784;SDS011;57944;48.722;9.316;2022-10-31T11:50:10;14.60;;;8.13;;
2784;SDS011;57944;48.722;9.316;2022-10-31T11:52:49;12.37;;;7.60;;
2784;SDS011;57944;48.722;9.316;2022-10-31T11:55:30;14.60;;;7.50;;
2784;SDS011;57944;48.722;9.316;2022-10-31T11:58:01;12.00;;;8.30;;
2784;SDS011;57944;48.722;9.316;2022-10-31T12:00:33;13.60;;;7.90;;
2784;SDS011;57944;48.722;9.316;2022-10-31T12:03:11;11.67;;;7.40;;
2784;SDS011;57944;48.722;9.316;2022-10-31T12:05:56;14.50;;;9.00;;
2784;SDS011;57944;48.722;9.316;2022-10-31T12:08:31;11.33;;;8.73;;
2784;SDS011;57944;48.722;9.316;2022-10-31T12:11:05;12.53;;;7.80;;
2784;SDS011;57944;48.722;9.316;2022-10-31T12:13:48;8.37;;;6.80;;
2784;SDS011;57944;48.722;9.316;2022-10-31T12:16:31;11.07;;;7.23;;
2784;SDS011;57944;48.722;9.316;2022-10-31T12:19:06;13.17;;;7.60;;
2784;SDS011;57944;48.722;9.316;2022-10-31T12:21:59;16.57;;;8.43;;
2784;SDS011;57944;48.722;9.316;2022-10-31T12:24:52;11.93;;;7.17;;
2784;SDS011;57944;48.722;9.316;2022-10-31T12:27:42;12.07;;;7.67;;
2784;SDS011;57944;48.722;9.316;2022-10-31T12:30:28;14.07;;;7.27;;
2784;SDS011;57944;48.722;9.316;2022-10-31T12:33:15;11.60;;;6.40;;
2784;SDS011;57944;48.722;9.316;2022-10-31T12:36:07;18.23;;;8.87;;
2784;SDS011;57944;48.722;9.316;2022-10-31T12:38:59;9.67;;;7.30;;
2784;SDS011;57944;48.722;9.316;2022-10-31T12:41:58;11.73;;;6.87;;
2784;SDS011;57944;48.722;9.316;2022-10-31T12:44:39;16.87;;;8.53;;
2784;SDS011;57944;48.722;9.316;2022-10-31T12:47:30;16.53;;;8.30;;
2784;SDS011;57944;48.722;9.316;2022-10-31T12:50:22;13.23;;;7.53;;
2784;SDS011;57944;48.722;9.316;2022-10-31T12:53:07;12.13;;;7.80;;
2784;SDS011;57944;48.722;9.316;2022-10-31T12:55:55;11.53;;;7.50;;
2784;SDS011;57944;48.722;9.316;2022-10-31T12:58:38;14.10;;;8.13;;
2784;SDS011;57944;48.722;9.316;2022-10-31T13:01:16;10.90;;;6.73;;
2784;SDS011;57944;48.722;9.316;2022-10-31T13:03:51;16.43;;;7.30;;
2784;SDS011;57944;48.722;9.316;2022-10-31T13:06:27;10.63;;;6.80;;
2784;SDS011;57944;48.722;9.316;2022-10-31T13:09:10;12.07;;;7.93;;
2784;SDS011;57944;48.722;9.316;2022-10-31T13:11:47;21.70;;;8.50;;
2784;SDS011;57944;48.722;9.316;2022-10-31T13:14:26;18.57;;;8.77;;
2784;SDS011;57944;48.722;9.316;2022-10-31T13:17:21;16.93;;;8.70;;
2784;SDS011;57944;48.722;9.316;2022-10-31T13:20:03;10.73;;;7.80;;
2784;SDS011;57944;48.722;9.316;2022-10-31T13:22:48;17.00;;;8.60;;
2784;SDS011;57944;48.722;9.316;2022-10-31T13:25:24;16.17;;;8.53;;
2784;SDS011;57944;48.722;9.316;2022-10-31T13:28:02;14.17;;;8.77;;
2784;SDS011;57944;48.722;9.316;2022-10-31T13:30:50;17.57;;;8.00;;
2784;SDS011;57944;48.722;9.316;2022-10-31T13:33:23;9.77;;;7.93;;
2784;SDS011;57944;48.722;9.316;2022-10-31T13:36:04;11.63;;;7.90;;
2784;SDS011;57944;48.722;9.316;2022-10-31T13:38:49;16.57;;;7.77;;
2784;SDS011;57944;48.722;9.316;2022-10-31T13:41:34;15.03;;;8.50;;
2784;SDS011;57944;48.722;9.316;2022-10-31T13:44:20;15.40;;;7.60;;
2784;SDS011;57944;48.722;9.316;2022-10-31T13:46:52;17.10;;;8.33;;
2784;SDS011;57944;48.722;9.316;2022-10-31T13:49:26;12.03;;;7.20;;
2784;SDS011;57944;48.722;9.316;2022-10-31T13:52:14;11.13;;;8.37;;
2784;SDS011;57944;48.722;9.316;2022-10-31T13:54:51;21.53;;;7.50;;
2784;SDS011;57944;48.722;9.316;2022-10-31T13:57:32;13.70;;;7.57;;
2784;SDS011;57944;48.722;9.316;2022-10-31T14:00:22;20.67;;;7.50;;
2784;SDS011;57944;48.722;9.316;2022-10-31T14:03:01;12.00;;;7.90;;
2784;SDS011;57944;48.722;9.316;2022-10-31T14:05:32;13.77;;;8.50;;
2784;SDS011;57944;48.722;9.316;2022-10-31T14:08:04;18.83;;;8.27;;
2784;SDS011;57944;48.722;9.316;2022-10-31T14:10:49;13.00;;;8.30;;
2784;SDS011;57944;48.722;9.316;2022-10-31T14:13:22;13.33;;;8.47;;
2784;SDS011;57944;48.722;9.316;2022-10-31T14:16:15;18.07;;;9.13;;
2784;SDS011;57944;48.722;9.316;2022-10-31T14:18:51;21.43;;;10.33;;
2784;SDS011;57944;48.722;9.316;2022-10-31T14:21:31;21.00;;;8.77;;
2784;SDS011;57944;48.722;9.316;2022-10-31T14:24:13;13.63;;;7.93;;
2784;SDS011;57944;48.722;9.316;2022-10-31T14:26:58;17.70;;;7.90;;
2784;SDS011;57944;48.722;9.316;2022-10-31T14:29:32;19.27;;;8.87;;
2784;SDS011;57944;48.722;9.316;2022-10-31T14:32:20;17.70;;;9.30;;
2784;SDS011;57944;48.722;9.316;2022-10-31T14:34:53;16.23;;;8.30;;
2784;SDS011;57944;48.722;9.316;2022-10-31T14:37:32;18.37;;;8.00;;
2784;SDS011;57944;48.722;9.316;2022-10-31T14:40:31;16.97;;;7.80;;
2784;SDS011;57944;48.722;9.316;2022-10-31T14:43:41;14.70;;;8.10;;
2784;SDS011;57944;48.722;9.316;2022-10-31T14:46:55;15.83;;;7.97;;
2784;SDS011;57944;48.722;9.316;2022-10-31T14:49:44;15.73;;;9.07;;
2784;SDS011;57944;48.722;9.316;2022-10-31T14:52:49;15.03;;;9.67;;
2784;SDS011;57944;48.722;9.316;2022-10-31T14:55:24;13.37;;;7.97;;
2784;SDS011;57944;48.722;9.316;2022-10-31T14:57:57;18.33;;;8.70;;
2784;SDS011;57944;48.722;9.316;2022-10-31T15:00:33;13.43;;;8.03;;
2784;SDS011;57944;48.722;9.316;2022-10-31T15:03:09;15.07;;;9.33;;
2784;SDS011;57944;48.722;9.316;2022-10-31T15:05:48;16.80;;;9.97;;
2784;SDS011;57944;48.722;9.316;2022-10-31T15:08:32;14.97;;;8.43;;
2784;SDS011;57944;48.722;9.316;2022-10-31T15:11:12;12.80;;;7.67;;
2784;SDS011;57944;48.722;9.316;2022-10-31T15:13:45;18.83;;;8.60;;
2784;SDS011;57944;48.722;9.316;2022-10-31T15:16:18;18.43;;;8.83;;
2784;SDS011;57944;48.722;9.316;2022-10-31T15:18:52;12.90;;;8.33;;
2784;SDS011;57944;48.722;9.316;2022-10-31T15:21:29;24.40;;;8.70;;
2784;SDS011;57944;48.722;9.316;2022-10-31T15:24:00;21.13;;;10.67;;
2784;SDS011;57944;48.722;9.316;2022-10-31T15:26:32;16.43;;;9.47;;
2784;SDS011;57944;48.722;9.316;2022-10-31T15:29:11;18.27;;;8.23;;
2784;SDS011;57944;48.722;9.316;2022-10-31T15:31:50;15.03;;;8.40;;
2784;SDS011;57944;48.722;9.316;2022-10-31T15:34:23;14.30;;;8.97;;
2784;SDS011;57944;48.722;9.316;2022-10-31T15:37:11;17.93;;;8.37;;
2784;SDS011;57944;48.722;9.316;2022-10-31T15:39:43;13.47;;;9.07;;
2784;SDS011;57944;48.722;9.316;2022-10-31T15:42:20;20.00;;;9.23;;
2784;SDS011;57944;48.722;9.316;2022-10-31T15:44:56;19.63;;;9.40;;
2784;SDS011;57944;48.722;9.316;2022-10-31T15:47:31;23.67;;;14.33;;
2784;SDS011;57944;48.722;9.316;2022-10-31T15:50:03;27.23;;;12.03;;